FDST

Siteki Airport

Siteki, Swaziland
METAR FDST 190000Z AUTO 00000KT //// // ////// 23/18 Q1011
Observed Flight Rules
Dec-19 @ 00:00 UTC (an hour ago)
Temperatures Readings
Current 23°C / 73°F
Dewpoint 18°C / 64°F
Humidity 74%
Altimeter 29.85" Hg
Pressure 1011 hPa
Elevation 667
METAR FDST 190000Z AUTO 00000KT //// // ////// 23/18 Q1011
Observed Flight Rules
Dec-19 @ 00:00 UTC
(an hour ago)
Temperature Dewpoint
23°C / 73°F 18°C / 64°F
Humidity Altimeter Pressure
74% 29.85" Hg 1011 hPa